sensor_id;sensor_type;location;lat;lon;timestamp;P1;durP1;ratioP1;P2;durP2;ratioP2
39788;SDS011;25478;42.626;23.320;2023-06-14T00:00:14;25.83;;;14.88;;
39788;SDS011;25478;42.626;23.320;2023-06-14T00:02:40;24.45;;;14.73;;
39788;SDS011;25478;42.626;23.320;2023-06-14T00:05:06;23.75;;;14.20;;
39788;SDS011;25478;42.626;23.320;2023-06-14T00:07:33;22.95;;;13.70;;
39788;SDS011;25478;42.626;23.320;2023-06-14T00:10:01;22.60;;;13.48;;
39788;SDS011;25478;42.626;23.320;2023-06-14T00:12:27;22.77;;;13.05;;
39788;SDS011;25478;42.626;23.320;2023-06-14T00:14:53;20.15;;;12.48;;
39788;SDS011;25478;42.626;23.320;2023-06-14T00:17:18;22.60;;;12.82;;
39788;SDS011;25478;42.626;23.320;2023-06-14T00:19:44;19.53;;;11.73;;
39788;SDS011;25478;42.626;23.320;2023-06-14T00:22:11;20.67;;;12.10;;
39788;SDS011;25478;42.626;23.320;2023-06-14T00:24:37;20.00;;;12.13;;
39788;SDS011;25478;42.626;23.320;2023-06-14T00:27:02;17.83;;;11.13;;
39788;SDS011;25478;42.626;23.320;2023-06-14T00:29:28;18.20;;;12.15;;
39788;SDS011;25478;42.626;23.320;2023-06-14T00:31:54;16.10;;;11.27;;
39788;SDS011;25478;42.626;23.320;2023-06-14T00:34:19;15.75;;;10.13;;
39788;SDS011;25478;42.626;23.320;2023-06-14T00:36:45;17.38;;;11.27;;
39788;SDS011;25478;42.626;23.320;2023-06-14T00:39:13;16.60;;;10.18;;
39788;SDS011;25478;42.626;23.320;2023-06-14T00:41:39;15.83;;;10.47;;
39788;SDS011;25478;42.626;23.320;2023-06-14T00:44:05;16.50;;;10.68;;
39788;SDS011;25478;42.626;23.320;2023-06-14T00:46:30;16.35;;;10.00;;
39788;SDS011;25478;42.626;23.320;2023-06-14T00:48:56;16.43;;;10.03;;
39788;SDS011;25478;42.626;23.320;2023-06-14T00:51:26;15.27;;;10.23;;
39788;SDS011;25478;42.626;23.320;2023-06-14T00:53:52;19.90;;;11.10;;
39788;SDS011;25478;42.626;23.320;2023-06-14T00:56:18;15.98;;;10.63;;
39788;SDS011;25478;42.626;23.320;2023-06-14T00:58:49;16.23;;;10.77;;
39788;SDS011;25478;42.626;23.320;2023-06-14T01:01:16;16.27;;;10.60;;
39788;SDS011;25478;42.626;23.320;2023-06-14T01:03:41;14.88;;;10.27;;
39788;SDS011;25478;42.626;23.320;2023-06-14T01:06:52;15.75;;;9.80;;
39788;SDS011;25478;42.626;23.320;2023-06-14T01:11:50;16.63;;;9.80;;
39788;SDS011;25478;42.626;23.320;2023-06-14T01:14:24;15.67;;;9.80;;
39788;SDS011;25478;42.626;23.320;2023-06-14T01:16:52;13.90;;;9.25;;
39788;SDS011;25478;42.626;23.320;2023-06-14T01:19:20;17.23;;;9.50;;
39788;SDS011;25478;42.626;23.320;2023-06-14T01:21:48;14.75;;;8.90;;
39788;SDS011;25478;42.626;23.320;2023-06-14T01:24:16;15.43;;;10.20;;
39788;SDS011;25478;42.626;23.320;2023-06-14T01:26:44;16.60;;;9.67;;
39788;SDS011;25478;42.626;23.320;2023-06-14T01:29:11;14.40;;;9.50;;
39788;SDS011;25478;42.626;23.320;2023-06-14T01:31:44;17.40;;;9.80;;
39788;SDS011;25478;42.626;23.320;2023-06-14T01:34:10;13.40;;;9.40;;
39788;SDS011;25478;42.626;23.320;2023-06-14T01:36:36;13.67;;;9.10;;
39788;SDS011;25478;42.626;23.320;2023-06-14T01:39:06;15.60;;;9.73;;
39788;SDS011;25478;42.626;23.320;2023-06-14T01:41:33;13.98;;;9.52;;
39788;SDS011;25478;42.626;23.320;2023-06-14T01:44:00;13.57;;;9.30;;
39788;SDS011;25478;42.626;23.320;2023-06-14T01:46:26;15.10;;;9.73;;
39788;SDS011;25478;42.626;23.320;2023-06-14T01:48:53;13.90;;;9.40;;
39788;SDS011;25478;42.626;23.320;2023-06-14T01:51:19;15.00;;;9.48;;
39788;SDS011;25478;42.626;23.320;2023-06-14T01:53:45;13.07;;;9.20;;
39788;SDS011;25478;42.626;23.320;2023-06-14T01:56:11;12.57;;;9.17;;
39788;SDS011;25478;42.626;23.320;2023-06-14T01:58:37;14.23;;;9.70;;
39788;SDS011;25478;42.626;23.320;2023-06-14T02:01:03;16.33;;;9.93;;
39788;SDS011;25478;42.626;23.320;2023-06-14T02:03:28;13.90;;;9.87;;
39788;SDS011;25478;42.626;23.320;2023-06-14T02:05:53;15.83;;;9.23;;
39788;SDS011;25478;42.626;23.320;2023-06-14T02:08:20;14.02;;;9.57;;
39788;SDS011;25478;42.626;23.320;2023-06-14T02:10:46;16.13;;;9.17;;
39788;SDS011;25478;42.626;23.320;2023-06-14T02:13:12;13.70;;;9.13;;
39788;SDS011;25478;42.626;23.320;2023-06-14T02:15:38;14.15;;;9.48;;
39788;SDS011;25478;42.626;23.320;2023-06-14T02:18:05;14.57;;;9.40;;
39788;SDS011;25478;42.626;23.320;2023-06-14T02:20:32;15.70;;;10.13;;
39788;SDS011;25478;42.626;23.320;2023-06-14T02:22:58;14.93;;;9.70;;
39788;SDS011;25478;42.626;23.320;2023-06-14T02:25:23;15.37;;;10.00;;
39788;SDS011;25478;42.626;23.320;2023-06-14T02:27:49;13.60;;;9.27;;
39788;SDS011;25478;42.626;23.320;2023-06-14T02:30:15;14.90;;;9.67;;
39788;SDS011;25478;42.626;23.320;2023-06-14T02:32:41;13.63;;;9.40;;
39788;SDS011;25478;42.626;23.320;2023-06-14T02:35:08;16.10;;;10.23;;
39788;SDS011;25478;42.626;23.320;2023-06-14T02:37:34;13.17;;;8.80;;
39788;SDS011;25478;42.626;23.320;2023-06-14T02:40:00;14.23;;;9.53;;
39788;SDS011;25478;42.626;23.320;2023-06-14T02:42:25;13.90;;;9.50;;
39788;SDS011;25478;42.626;23.320;2023-06-14T02:44:51;15.10;;;9.37;;
39788;SDS011;25478;42.626;23.320;2023-06-14T02:47:20;14.20;;;9.20;;
39788;SDS011;25478;42.626;23.320;2023-06-14T02:49:45;14.60;;;9.23;;
39788;SDS011;25478;42.626;23.320;2023-06-14T02:52:14;13.40;;;9.20;;
39788;SDS011;25478;42.626;23.320;2023-06-14T02:54:40;13.70;;;9.17;;
39788;SDS011;25478;42.626;23.320;2023-06-14T02:57:07;13.53;;;9.20;;
39788;SDS011;25478;42.626;23.320;2023-06-14T02:59:33;14.33;;;9.80;;
39788;SDS011;25478;42.626;23.320;2023-06-14T03:02:01;15.63;;;10.03;;
39788;SDS011;25478;42.626;23.320;2023-06-14T03:04:28;13.87;;;10.13;;
39788;SDS011;25478;42.626;23.320;2023-06-14T03:06:54;13.60;;;9.83;;
39788;SDS011;25478;42.626;23.320;2023-06-14T03:09:21;14.83;;;9.23;;
39788;SDS011;25478;42.626;23.320;2023-06-14T03:11:47;14.57;;;10.23;;
39788;SDS011;25478;42.626;23.320;2023-06-14T03:14:13;14.90;;;9.87;;
39788;SDS011;25478;42.626;23.320;2023-06-14T03:16:41;14.40;;;10.10;;
39788;SDS011;25478;42.626;23.320;2023-06-14T03:19:08;17.80;;;11.07;;
39788;SDS011;25478;42.626;23.320;2023-06-14T03:21:34;14.10;;;9.83;;
39788;SDS011;25478;42.626;23.320;2023-06-14T03:24:02;13.53;;;9.27;;
39788;SDS011;25478;42.626;23.320;2023-06-14T03:26:29;15.37;;;9.27;;
39788;SDS011;25478;42.626;23.320;2023-06-14T03:28:58;13.87;;;9.23;;
39788;SDS011;25478;42.626;23.320;2023-06-14T03:31:24;14.50;;;9.53;;
39788;SDS011;25478;42.626;23.320;2023-06-14T03:33:50;13.90;;;10.00;;
39788;SDS011;25478;42.626;23.320;2023-06-14T03:36:16;15.23;;;9.83;;
39788;SDS011;25478;42.626;23.320;2023-06-14T03:38:43;16.50;;;10.30;;
39788;SDS011;25478;42.626;23.320;2023-06-14T03:41:09;16.53;;;10.07;;
39788;SDS011;25478;42.626;23.320;2023-06-14T03:43:35;15.47;;;10.00;;
39788;SDS011;25478;42.626;23.320;2023-06-14T03:46:01;14.30;;;9.93;;
39788;SDS011;25478;42.626;23.320;2023-06-14T03:48:28;14.97;;;9.10;;
39788;SDS011;25478;42.626;23.320;2023-06-14T03:50:54;15.20;;;10.03;;
39788;SDS011;25478;42.626;23.320;2023-06-14T03:53:20;14.77;;;9.52;;
39788;SDS011;25478;42.626;23.320;2023-06-14T03:55:49;15.30;;;9.80;;
39788;SDS011;25478;42.626;23.320;2023-06-14T03:58:18;14.40;;;10.27;;
39788;SDS011;25478;42.626;23.320;2023-06-14T04:00:44;16.13;;;9.68;;
39788;SDS011;25478;42.626;23.320;2023-06-14T04:03:11;18.15;;;11.30;;
39788;SDS011;25478;42.626;23.320;2023-06-14T04:05:39;16.17;;;10.10;;
39788;SDS011;25478;42.626;23.320;2023-06-14T04:08:07;16.08;;;10.02;;
39788;SDS011;25478;42.626;23.320;2023-06-14T04:10:35;16.95;;;10.90;;
39788;SDS011;25478;42.626;23.320;2023-06-14T04:13:01;15.77;;;10.32;;
39788;SDS011;25478;42.626;23.320;2023-06-14T04:15:27;15.60;;;10.23;;
39788;SDS011;25478;42.626;23.320;2023-06-14T04:17:56;13.55;;;9.85;;
39788;SDS011;25478;42.626;23.320;2023-06-14T04:20:23;16.67;;;10.35;;
39788;SDS011;25478;42.626;23.320;2023-06-14T04:22:51;14.07;;;9.85;;
39788;SDS011;25478;42.626;23.320;2023-06-14T04:25:22;16.55;;;9.68;;
39788;SDS011;25478;42.626;23.320;2023-06-14T04:27:48;15.15;;;10.27;;
39788;SDS011;25478;42.626;23.320;2023-06-14T04:30:15;17.52;;;10.13;;
39788;SDS011;25478;42.626;23.320;2023-06-14T04:32:46;19.45;;;11.40;;
39788;SDS011;25478;42.626;23.320;2023-06-14T04:35:12;20.02;;;12.18;;
39788;SDS011;25478;42.626;23.320;2023-06-14T04:37:40;23.23;;;12.95;;
39788;SDS011;25478;42.626;23.320;2023-06-14T04:40:07;20.25;;;12.77;;
39788;SDS011;25478;42.626;23.320;2023-06-14T04:42:35;22.15;;;13.05;;
39788;SDS011;25478;42.626;23.320;2023-06-14T04:45:03;17.23;;;10.93;;
39788;SDS011;25478;42.626;23.320;2023-06-14T04:47:29;18.60;;;10.88;;
39788;SDS011;25478;42.626;23.320;2023-06-14T04:49:56;17.95;;;10.93;;
39788;SDS011;25478;42.626;23.320;2023-06-14T04:52:23;18.35;;;10.70;;
39788;SDS011;25478;42.626;23.320;2023-06-14T04:54:53;19.88;;;10.88;;
39788;SDS011;25478;42.626;23.320;2023-06-14T04:57:20;18.00;;;11.50;;
39788;SDS011;25478;42.626;23.320;2023-06-14T04:59:48;16.60;;;11.02;;
39788;SDS011;25478;42.626;23.320;2023-06-14T05:02:20;20.52;;;12.10;;
39788;SDS011;25478;42.626;23.320;2023-06-14T05:04:47;18.67;;;12.02;;
39788;SDS011;25478;42.626;23.320;2023-06-14T05:07:13;19.45;;;11.20;;
39788;SDS011;25478;42.626;23.320;2023-06-14T05:09:40;15.48;;;10.93;;
39788;SDS011;25478;42.626;23.320;2023-06-14T05:12:06;16.88;;;11.88;;
39788;SDS011;25478;42.626;23.320;2023-06-14T05:14:35;17.65;;;11.45;;
39788;SDS011;25478;42.626;23.320;2023-06-14T05:17:01;17.38;;;11.75;;
39788;SDS011;25478;42.626;23.320;2023-06-14T05:19:27;18.85;;;12.30;;
39788;SDS011;25478;42.626;23.320;2023-06-14T05:21:53;18.73;;;11.80;;
39788;SDS011;25478;42.626;23.320;2023-06-14T05:24:20;18.48;;;11.95;;
39788;SDS011;25478;42.626;23.320;2023-06-14T05:26:46;17.52;;;11.75;;
39788;SDS011;25478;42.626;23.320;2023-06-14T05:29:11;18.92;;;11.25;;
39788;SDS011;25478;42.626;23.320;2023-06-14T05:31:37;16.50;;;11.25;;
39788;SDS011;25478;42.626;23.320;2023-06-14T05:34:03;18.13;;;11.98;;
39788;SDS011;25478;42.626;23.320;2023-06-14T05:36:29;19.17;;;12.45;;
39788;SDS011;25478;42.626;23.320;2023-06-14T05:38:54;18.02;;;12.05;;
39788;SDS011;25478;42.626;23.320;2023-06-14T05:41:27;17.75;;;11.70;;
39788;SDS011;25478;42.626;23.320;2023-06-14T05:43:56;16.10;;;11.40;;
39788;SDS011;25478;42.626;23.320;2023-06-14T05:46:23;17.63;;;12.70;;
39788;SDS011;25478;42.626;23.320;2023-06-14T05:48:53;18.17;;;11.88;;
39788;SDS011;25478;42.626;23.320;2023-06-14T05:51:20;15.63;;;11.57;;
39788;SDS011;25478;42.626;23.320;2023-06-14T05:53:46;19.65;;;12.02;;
39788;SDS011;25478;42.626;23.320;2023-06-14T05:56:13;17.77;;;12.18;;
39788;SDS011;25478;42.626;23.320;2023-06-14T05:58:43;21.10;;;12.32;;
39788;SDS011;25478;42.626;23.320;2023-06-14T06:01:09;15.93;;;11.57;;
39788;SDS011;25478;42.626;23.320;2023-06-14T06:03:34;20.95;;;13.35;;
39788;SDS011;25478;42.626;23.320;2023-06-14T06:06:00;22.65;;;13.45;;
39788;SDS011;25478;42.626;23.320;2023-06-14T06:08:28;20.23;;;13.63;;
39788;SDS011;25478;42.626;23.320;2023-06-14T06:10:55;19.63;;;13.57;;
39788;SDS011;25478;42.626;23.320;2023-06-14T06:13:21;21.15;;;13.25;;
39788;SDS011;25478;42.626;23.320;2023-06-14T06:15:46;20.65;;;11.93;;
39788;SDS011;25478;42.626;23.320;2023-06-14T06:18:12;20.83;;;13.07;;
39788;SDS011;25478;42.626;23.320;2023-06-14T06:20:37;19.70;;;13.00;;
39788;SDS011;25478;42.626;23.320;2023-06-14T06:23:03;20.90;;;12.85;;
39788;SDS011;25478;42.626;23.320;2023-06-14T06:25:28;23.15;;;13.95;;
39788;SDS011;25478;42.626;23.320;2023-06-14T06:27:57;20.08;;;13.50;;
39788;SDS011;25478;42.626;23.320;2023-06-14T06:30:23;19.20;;;12.90;;
39788;SDS011;25478;42.626;23.320;2023-06-14T06:32:48;22.90;;;13.68;;
39788;SDS011;25478;42.626;23.320;2023-06-14T06:35:14;20.25;;;13.35;;
39788;SDS011;25478;42.626;23.320;2023-06-14T06:37:40;22.48;;;14.93;;
39788;SDS011;25478;42.626;23.320;2023-06-14T06:40:07;25.02;;;14.25;;
39788;SDS011;25478;42.626;23.320;2023-06-14T06:42:33;25.80;;;15.52;;
39788;SDS011;25478;42.626;23.320;2023-06-14T06:45:02;21.83;;;14.27;;
39788;SDS011;25478;42.626;23.320;2023-06-14T06:47:29;23.88;;;15.57;;
39788;SDS011;25478;42.626;23.320;2023-06-14T06:49:55;28.73;;;17.95;;
39788;SDS011;25478;42.626;23.320;2023-06-14T06:52:22;25.10;;;14.77;;
39788;SDS011;25478;42.626;23.320;2023-06-14T06:54:47;24.73;;;14.60;;
39788;SDS011;25478;42.626;23.320;2023-06-14T06:57:14;22.27;;;15.23;;
39788;SDS011;25478;42.626;23.320;2023-06-14T06:59:39;22.73;;;14.02;;
39788;SDS011;25478;42.626;23.320;2023-06-14T07:02:05;23.10;;;14.48;;
39788;SDS011;25478;42.626;23.320;2023-06-14T07:04:31;22.35;;;13.52;;
39788;SDS011;25478;42.626;23.320;2023-06-14T07:06:56;23.45;;;14.45;;
39788;SDS011;25478;42.626;23.320;2023-06-14T07:09:22;20.48;;;12.85;;
39788;SDS011;25478;42.626;23.320;2023-06-14T07:11:49;21.98;;;12.75;;
39788;SDS011;25478;42.626;23.320;2023-06-14T07:14:14;19.60;;;13.55;;
39788;SDS011;25478;42.626;23.320;2023-06-14T07:16:40;20.25;;;12.85;;
39788;SDS011;25478;42.626;23.320;2023-06-14T07:19:06;17.98;;;11.93;;
39788;SDS011;25478;42.626;23.320;2023-06-14T07:21:31;17.10;;;12.10;;
39788;SDS011;25478;42.626;23.320;2023-06-14T07:23:57;17.85;;;12.27;;
39788;SDS011;25478;42.626;23.320;2023-06-14T07:26:23;18.05;;;12.15;;
39788;SDS011;25478;42.626;23.320;2023-06-14T07:28:48;19.33;;;12.13;;
39788;SDS011;25478;42.626;23.320;2023-06-14T07:31:17;18.35;;;12.02;;
39788;SDS011;25478;42.626;23.320;2023-06-14T07:33:44;18.35;;;12.50;;
39788;SDS011;25478;42.626;23.320;2023-06-14T07:36:10;18.63;;;13.13;;
39788;SDS011;25478;42.626;23.320;2023-06-14T07:38:35;17.58;;;12.55;;
39788;SDS011;25478;42.626;23.320;2023-06-14T07:41:01;21.48;;;13.57;;
39788;SDS011;25478;42.626;23.320;2023-06-14T07:43:27;27.85;;;13.23;;
39788;SDS011;25478;42.626;23.320;2023-06-14T07:45:53;19.70;;;13.40;;
39788;SDS011;25478;42.626;23.320;2023-06-14T07:48:18;21.15;;;14.10;;
39788;SDS011;25478;42.626;23.320;2023-06-14T07:50:44;25.33;;;14.00;;
39788;SDS011;25478;42.626;23.320;2023-06-14T07:53:09;20.50;;;12.98;;
39788;SDS011;25478;42.626;23.320;2023-06-14T07:55:35;20.85;;;14.13;;
39788;SDS011;25478;42.626;23.320;2023-06-14T07:58:05;19.75;;;14.07;;
39788;SDS011;25478;42.626;23.320;2023-06-14T08:00:31;20.48;;;13.18;;
39788;SDS011;25478;42.626;23.320;2023-06-14T08:02:57;20.73;;;13.50;;
39788;SDS011;25478;42.626;23.320;2023-06-14T08:05:27;21.38;;;13.80;;
39788;SDS011;25478;42.626;23.320;2023-06-14T08:07:53;18.90;;;13.50;;
39788;SDS011;25478;42.626;23.320;2023-06-14T08:10:19;21.20;;;13.40;;
39788;SDS011;25478;42.626;23.320;2023-06-14T08:12:45;18.85;;;13.32;;
39788;SDS011;25478;42.626;23.320;2023-06-14T08:15:10;22.52;;;14.25;;
39788;SDS011;25478;42.626;23.320;2023-06-14T08:17:36;20.67;;;13.82;;
39788;SDS011;25478;42.626;23.320;2023-06-14T08:20:02;20.23;;;13.00;;
39788;SDS011;25478;42.626;23.320;2023-06-14T08:22:31;20.88;;;13.80;;
39788;SDS011;25478;42.626;23.320;2023-06-14T08:24:59;19.38;;;13.18;;
39788;SDS011;25478;42.626;23.320;2023-06-14T08:27:26;21.10;;;14.05;;
39788;SDS011;25478;42.626;23.320;2023-06-14T08:29:51;22.80;;;13.07;;
39788;SDS011;25478;42.626;23.320;2023-06-14T08:32:17;20.40;;;12.95;;
39788;SDS011;25478;42.626;23.320;2023-06-14T08:34:42;18.33;;;12.43;;
39788;SDS011;25478;42.626;23.320;2023-06-14T08:37:08;20.50;;;13.50;;
39788;SDS011;25478;42.626;23.320;2023-06-14T08:39:33;23.50;;;14.13;;
39788;SDS011;25478;42.626;23.320;2023-06-14T08:41:59;20.38;;;14.50;;
39788;SDS011;25478;42.626;23.320;2023-06-14T08:44:27;21.65;;;14.88;;
39788;SDS011;25478;42.626;23.320;2023-06-14T08:46:54;23.95;;;15.10;;
39788;SDS011;25478;42.626;23.320;2023-06-14T08:49:22;20.33;;;13.60;;
39788;SDS011;25478;42.626;23.320;2023-06-14T08:51:50;23.38;;;13.60;;
39788;SDS011;25478;42.626;23.320;2023-06-14T08:54:23;20.23;;;13.60;;
39788;SDS011;25478;42.626;23.320;2023-06-14T08:56:52;20.95;;;14.07;;
39788;SDS011;25478;42.626;23.320;2023-06-14T08:59:19;20.85;;;13.82;;
39788;SDS011;25478;42.626;23.320;2023-06-14T09:01:46;20.58;;;13.88;;
39788;SDS011;25478;42.626;23.320;2023-06-14T09:04:12;22.80;;;14.60;;
39788;SDS011;25478;42.626;23.320;2023-06-14T09:06:38;18.05;;;13.48;;
39788;SDS011;25478;42.626;23.320;2023-06-14T09:09:03;21.88;;;13.82;;
39788;SDS011;25478;42.626;23.320;2023-06-14T09:11:29;20.50;;;13.93;;
39788;SDS011;25478;42.626;23.320;2023-06-14T09:13:55;20.02;;;14.23;;
39788;SDS011;25478;42.626;23.320;2023-06-14T09:16:21;20.65;;;14.18;;
39788;SDS011;25478;42.626;23.320;2023-06-14T09:18:47;19.52;;;13.48;;
39788;SDS011;25478;42.626;23.320;2023-06-14T09:21:13;22.38;;;14.93;;
39788;SDS011;25478;42.626;23.320;2023-06-14T09:23:43;23.55;;;16.27;;
39788;SDS011;25478;42.626;23.320;2023-06-14T09:26:10;19.92;;;14.70;;
39788;SDS011;25478;42.626;23.320;2023-06-14T09:28:43;21.17;;;14.68;;
39788;SDS011;25478;42.626;23.320;2023-06-14T09:31:13;23.67;;;15.02;;
39788;SDS011;25478;42.626;23.320;2023-06-14T09:33:43;21.58;;;14.07;;
39788;SDS011;25478;42.626;23.320;2023-06-14T09:36:16;20.73;;;14.90;;
39788;SDS011;25478;42.626;23.320;2023-06-14T09:38:57;19.42;;;13.80;;
39788;SDS011;25478;42.626;23.320;2023-06-14T09:41:32;20.23;;;13.50;;
39788;SDS011;25478;42.626;23.320;2023-06-14T09:44:00;20.02;;;13.90;;
39788;SDS011;25478;42.626;23.320;2023-06-14T09:46:28;19.63;;;14.02;;
39788;SDS011;25478;42.626;23.320;2023-06-14T09:48:54;19.90;;;13.35;;
39788;SDS011;25478;42.626;23.320;2023-06-14T09:51:24;20.48;;;13.63;;
39788;SDS011;25478;42.626;23.320;2023-06-14T09:53:59;18.50;;;13.20;;
39788;SDS011;25478;42.626;23.320;2023-06-14T09:56:34;17.73;;;13.18;;
39788;SDS011;25478;42.626;23.320;2023-06-14T09:59:05;20.15;;;14.13;;
39788;SDS011;25478;42.626;23.320;2023-06-14T10:01:35;20.85;;;14.02;;
39788;SDS011;25478;42.626;23.320;2023-06-14T10:04:09;20.70;;;13.95;;
39788;SDS011;25478;42.626;23.320;2023-06-14T10:06:43;17.85;;;13.52;;
39788;SDS011;25478;42.626;23.320;2023-06-14T10:09:12;18.77;;;13.13;;
39788;SDS011;25478;42.626;23.320;2023-06-14T10:11:39;19.80;;;13.32;;
39788;SDS011;25478;42.626;23.320;2023-06-14T10:14:10;22.05;;;14.43;;
39788;SDS011;25478;42.626;23.320;2023-06-14T10:16:39;19.38;;;13.88;;
39788;SDS011;25478;42.626;23.320;2023-06-14T10:19:19;19.15;;;13.88;;
39788;SDS011;25478;42.626;23.320;2023-06-14T10:22:04;20.20;;;13.70;;
39788;SDS011;25478;42.626;23.320;2023-06-14T10:24:44;19.92;;;14.82;;
39788;SDS011;25478;42.626;23.320;2023-06-14T10:27:14;21.45;;;14.07;;
39788;SDS011;25478;42.626;23.320;2023-06-14T10:32:24;18.15;;;12.77;;
39788;SDS011;25478;42.626;23.320;2023-06-14T10:34:57;18.30;;;12.98;;
39788;SDS011;25478;42.626;23.320;2023-06-14T10:37:32;20.67;;;13.93;;
39788;SDS011;25478;42.626;23.320;2023-06-14T10:39:58;19.95;;;13.88;;
39788;SDS011;25478;42.626;23.320;2023-06-14T10:42:33;23.23;;;14.48;;
39788;SDS011;25478;42.626;23.320;2023-06-14T10:44:58;20.48;;;14.57;;
39788;SDS011;25478;42.626;23.320;2023-06-14T10:50:27;18.67;;;13.57;;
39788;SDS011;25478;42.626;23.320;2023-06-14T10:52:44;17.17;;;12.75;;
39788;SDS011;25478;42.626;23.320;2023-06-14T10:57:44;16.88;;;13.00;;
39788;SDS011;25478;42.626;23.320;2023-06-14T11:00:11;20.17;;;12.57;;
39788;SDS011;25478;42.626;23.320;2023-06-14T11:05:48;18.40;;;13.70;;
39788;SDS011;25478;42.626;23.320;2023-06-14T11:11:07;18.45;;;14.02;;
39788;SDS011;25478;42.626;23.320;2023-06-14T11:13:34;17.52;;;12.93;;
39788;SDS011;25478;42.626;23.320;2023-06-14T11:16:03;17.63;;;12.65;;
39788;SDS011;25478;42.626;23.320;2023-06-14T11:18:35;18.10;;;12.43;;
39788;SDS011;25478;42.626;23.320;2023-06-14T11:21:01;22.67;;;14.23;;
39788;SDS011;25478;42.626;23.320;2023-06-14T11:23:27;17.85;;;12.80;;
39788;SDS011;25478;42.626;23.320;2023-06-14T11:25:53;19.98;;;12.88;;
39788;SDS011;25478;42.626;23.320;2023-06-14T11:28:19;17.90;;;12.75;;
39788;SDS011;25478;42.626;23.320;2023-06-14T11:30:46;18.52;;;12.50;;
39788;SDS011;25478;42.626;23.320;2023-06-14T11:33:18;17.13;;;11.73;;
39788;SDS011;25478;42.626;23.320;2023-06-14T11:35:44;17.63;;;11.68;;
39788;SDS011;25478;42.626;23.320;2023-06-14T11:38:10;16.95;;;11.20;;
39788;SDS011;25478;42.626;23.320;2023-06-14T11:40:38;15.90;;;10.88;;
39788;SDS011;25478;42.626;23.320;2023-06-14T11:43:03;15.75;;;11.00;;
39788;SDS011;25478;42.626;23.320;2023-06-14T11:45:30;14.88;;;11.10;;
39788;SDS011;25478;42.626;23.320;2023-06-14T11:47:56;14.82;;;10.85;;
39788;SDS011;25478;42.626;23.320;2023-06-14T11:50:23;14.57;;;10.30;;
39788;SDS011;25478;42.626;23.320;2023-06-14T11:52:56;12.90;;;9.75;;
39788;SDS011;25478;42.626;23.320;2023-06-14T11:55:32;12.73;;;9.90;;
39788;SDS011;25478;42.626;23.320;2023-06-14T11:58:01;15.13;;;9.75;;
39788;SDS011;25478;42.626;23.320;2023-06-14T12:00:28;12.45;;;10.15;;
39788;SDS011;25478;42.626;23.320;2023-06-14T12:02:54;12.27;;;9.82;;
39788;SDS011;25478;42.626;23.320;2023-06-14T12:05:23;12.27;;;9.60;;
39788;SDS011;25478;42.626;23.320;2023-06-14T12:07:50;12.80;;;9.43;;
39788;SDS011;25478;42.626;23.320;2023-06-14T12:10:18;13.50;;;9.60;;
39788;SDS011;25478;42.626;23.320;2023-06-14T12:12:44;11.57;;;8.90;;
39788;SDS011;25478;42.626;23.320;2023-06-14T12:15:10;14.18;;;10.20;;
39788;SDS011;25478;42.626;23.320;2023-06-14T12:17:39;15.38;;;8.60;;
39788;SDS011;25478;42.626;23.320;2023-06-14T12:20:10;12.05;;;9.45;;
39788;SDS011;25478;42.626;23.320;2023-06-14T12:22:52;12.18;;;8.90;;
39788;SDS011;25478;42.626;23.320;2023-06-14T12:25:26;11.77;;;8.95;;
39788;SDS011;25478;42.626;23.320;2023-06-14T12:27:54;10.30;;;8.15;;
39788;SDS011;25478;42.626;23.320;2023-06-14T12:30:20;10.55;;;8.48;;
39788;SDS011;25478;42.626;23.320;2023-06-14T12:32:45;10.32;;;8.20;;
39788;SDS011;25478;42.626;23.320;2023-06-14T12:35:11;11.90;;;8.65;;
39788;SDS011;25478;42.626;23.320;2023-06-14T12:37:36;11.85;;;8.88;;
39788;SDS011;25478;42.626;23.320;2023-06-14T12:40:03;11.48;;;8.32;;
39788;SDS011;25478;42.626;23.320;2023-06-14T12:42:31;11.25;;;8.35;;
39788;SDS011;25478;42.626;23.320;2023-06-14T12:44:56;11.48;;;8.68;;
39788;SDS011;25478;42.626;23.320;2023-06-14T12:47:22;11.65;;;8.73;;
39788;SDS011;25478;42.626;23.320;2023-06-14T12:49:47;10.85;;;8.50;;
39788;SDS011;25478;42.626;23.320;2023-06-14T12:52:13;11.75;;;8.57;;
39788;SDS011;25478;42.626;23.320;2023-06-14T12:54:38;12.82;;;9.50;;
39788;SDS011;25478;42.626;23.320;2023-06-14T12:57:05;12.50;;;8.70;;
39788;SDS011;25478;42.626;23.320;2023-06-14T12:59:31;12.95;;;9.30;;
39788;SDS011;25478;42.626;23.320;2023-06-14T13:01:59;13.60;;;9.75;;
39788;SDS011;25478;42.626;23.320;2023-06-14T13:04:36;13.43;;;9.13;;
39788;SDS011;25478;42.626;23.320;2023-06-14T13:07:01;12.90;;;9.50;;
39788;SDS011;25478;42.626;23.320;2023-06-14T13:09:27;12.00;;;9.10;;
39788;SDS011;25478;42.626;23.320;2023-06-14T13:11:52;14.75;;;11.00;;
39788;SDS011;25478;42.626;23.320;2023-06-14T13:14:18;14.70;;;10.13;;
39788;SDS011;25478;42.626;23.320;2023-06-14T13:16:43;13.55;;;10.32;;
39788;SDS011;25478;42.626;23.320;2023-06-14T13:19:09;16.45;;;10.68;;
39788;SDS011;25478;42.626;23.320;2023-06-14T13:21:34;15.90;;;10.80;;
39788;SDS011;25478;42.626;23.320;2023-06-14T13:24:00;15.55;;;10.55;;
39788;SDS011;25478;42.626;23.320;2023-06-14T13:26:25;17.73;;;9.80;;
39788;SDS011;25478;42.626;23.320;2023-06-14T13:28:52;13.65;;;9.70;;
39788;SDS011;25478;42.626;23.320;2023-06-14T13:31:17;13.85;;;9.43;;
39788;SDS011;25478;42.626;23.320;2023-06-14T13:33:43;18.50;;;10.60;;
39788;SDS011;25478;42.626;23.320;2023-06-14T13:36:08;16.08;;;11.05;;
39788;SDS011;25478;42.626;23.320;2023-06-14T13:38:34;15.57;;;11.10;;
39788;SDS011;25478;42.626;23.320;2023-06-14T13:40:59;16.98;;;11.48;;
39788;SDS011;25478;42.626;23.320;2023-06-14T13:43:25;16.63;;;11.00;;
39788;SDS011;25478;42.626;23.320;2023-06-14T13:45:50;15.88;;;11.13;;
39788;SDS011;25478;42.626;23.320;2023-06-14T13:48:16;17.00;;;10.98;;
39788;SDS011;25478;42.626;23.320;2023-06-14T13:50:41;15.95;;;10.55;;
39788;SDS011;25478;42.626;23.320;2023-06-14T13:53:07;15.35;;;11.27;;
39788;SDS011;25478;42.626;23.320;2023-06-14T13:55:33;14.98;;;10.20;;
39788;SDS011;25478;42.626;23.320;2023-06-14T13:57:58;15.27;;;10.02;;
39788;SDS011;25478;42.626;23.320;2023-06-14T14:00:24;14.45;;;9.88;;
39788;SDS011;25478;42.626;23.320;2023-06-14T14:02:50;12.88;;;9.48;;
39788;SDS011;25478;42.626;23.320;2023-06-14T14:05:15;14.95;;;8.93;;
39788;SDS011;25478;42.626;23.320;2023-06-14T14:07:41;12.80;;;8.40;;
39788;SDS011;25478;42.626;23.320;2023-06-14T14:10:07;13.05;;;8.80;;
39788;SDS011;25478;42.626;23.320;2023-06-14T14:12:33;12.75;;;8.57;;
39788;SDS011;25478;42.626;23.320;2023-06-14T14:14:59;9.77;;;7.28;;
39788;SDS011;25478;42.626;23.320;2023-06-14T14:17:24;10.15;;;6.82;;
39788;SDS011;25478;42.626;23.320;2023-06-14T14:19:50;10.57;;;6.60;;
39788;SDS011;25478;42.626;23.320;2023-06-14T14:22:15;8.93;;;6.82;;
39788;SDS011;25478;42.626;23.320;2023-06-14T14:24:41;10.80;;;7.07;;
39788;SDS011;25478;42.626;23.320;2023-06-14T14:27:07;9.98;;;6.93;;
39788;SDS011;25478;42.626;23.320;2023-06-14T14:29:33;9.40;;;6.60;;